sensor_id;sensor_type;location;lat;lon;timestamp;pressure;altitude;pressure_sealevel;temperature;humidity
48404;BME280;34202;52.536;6.042;2023-12-07T00:04:15;102049.13;;;-0.16;100.00
48404;BME280;34202;52.536;6.042;2023-12-07T00:09:16;102049.94;;;-0.20;100.00
48404;BME280;34202;52.536;6.042;2023-12-07T00:14:16;102048.84;;;-0.21;100.00
48404;BME280;34202;52.536;6.042;2023-12-07T00:19:17;102045.79;;;-0.21;100.00
48404;BME280;34202;52.536;6.042;2023-12-07T00:24:17;102048.63;;;-0.19;100.00
48404;BME280;34202;52.536;6.042;2023-12-07T00:29:18;102044.63;;;-0.17;100.00
48404;BME280;34202;52.536;6.042;2023-12-07T00:34:18;102048.02;;;-0.15;100.00
48404;BME280;34202;52.536;6.042;2023-12-07T00:39:18;102046.83;;;-0.12;100.00
48404;BME280;34202;52.536;6.042;2023-12-07T00:44:19;102048.45;;;-0.09;100.00
48404;BME280;34202;52.536;6.042;2023-12-07T00:49:19;102049.31;;;-0.06;100.00
48404;BME280;34202;52.536;6.042;2023-12-07T00:54:20;102052.54;;;-0.04;100.00
48404;BME280;34202;52.536;6.042;2023-12-07T00:59:20;102049.41;;;-0.03;100.00
48404;BME280;34202;52.536;6.042;2023-12-07T01:04:20;102047.63;;;-0.01;100.00
48404;BME280;34202;52.536;6.042;2023-12-07T01:09:21;102052.20;;;-0.02;100.00
48404;BME280;34202;52.536;6.042;2023-12-07T01:14:22;102059.59;;;-0.02;100.00
48404;BME280;34202;52.536;6.042;2023-12-07T01:19:22;102058.02;;;-0.02;100.00
48404;BME280;34202;52.536;6.042;2023-12-07T01:24:22;102061.46;;;-0.02;100.00
48404;BME280;34202;52.536;6.042;2023-12-07T01:29:23;102061.66;;;-0.01;100.00
48404;BME280;34202;52.536;6.042;2023-12-07T01:34:23;102063.16;;;-0.02;100.00
48404;BME280;34202;52.536;6.042;2023-12-07T01:39:24;102062.76;;;-0.03;100.00
48404;BME280;34202;52.536;6.042;2023-12-07T01:44:24;102059.41;;;-0.04;100.00
48404;BME280;34202;52.536;6.042;2023-12-07T01:49:25;102061.94;;;-0.05;100.00
48404;BME280;34202;52.536;6.042;2023-12-07T01:54:26;102069.19;;;-0.06;100.00
48404;BME280;34202;52.536;6.042;2023-12-07T01:59:26;102075.44;;;-0.07;100.00
48404;BME280;34202;52.536;6.042;2023-12-07T02:04:27;102070.21;;;-0.09;100.00
48404;BME280;34202;52.536;6.042;2023-12-07T02:09:27;102069.02;;;-0.11;100.00
48404;BME280;34202;52.536;6.042;2023-12-07T02:14:28;102070.02;;;-0.14;100.00
48404;BME280;34202;52.536;6.042;2023-12-07T02:25:01;102069.84;;;-0.19;100.00
48404;BME280;34202;52.536;6.042;2023-12-07T02:30:05;102069.08;;;-0.23;100.00
48404;BME280;34202;52.536;6.042;2023-12-07T02:35:07;102071.90;;;-0.26;100.00
48404;BME280;34202;52.536;6.042;2023-12-07T02:40:08;102069.89;;;-0.30;100.00
48404;BME280;34202;52.536;6.042;2023-12-07T02:45:12;102060.89;;;-0.34;100.00
48404;BME280;34202;52.536;6.042;2023-12-07T02:50:13;102063.88;;;-0.38;100.00
48404;BME280;34202;52.536;6.042;2023-12-07T02:55:14;102063.88;;;-0.43;100.00
48404;BME280;34202;52.536;6.042;2023-12-07T03:00:15;102064.35;;;-0.48;100.00
48404;BME280;34202;52.536;6.042;2023-12-07T03:05:15;102057.06;;;-0.52;100.00
48404;BME280;34202;52.536;6.042;2023-12-07T03:10:16;102054.62;;;-0.55;100.00
48404;BME280;34202;52.536;6.042;2023-12-07T03:19:46;102054.13;;;-0.60;100.00
48404;BME280;34202;52.536;6.042;2023-12-07T03:24:50;102062.28;;;-0.66;100.00
48404;BME280;34202;52.536;6.042;2023-12-07T03:29:50;102065.63;;;-0.69;100.00
48404;BME280;34202;52.536;6.042;2023-12-07T03:34:51;102064.64;;;-0.71;100.00
48404;BME280;34202;52.536;6.042;2023-12-07T03:39:51;102064.50;;;-0.73;100.00
48404;BME280;34202;52.536;6.042;2023-12-07T03:44:52;102069.77;;;-0.76;100.00
48404;BME280;34202;52.536;6.042;2023-12-07T03:49:52;102076.64;;;-0.77;100.00
48404;BME280;34202;52.536;6.042;2023-12-07T03:54:53;102080.23;;;-0.80;100.00
48404;BME280;34202;52.536;6.042;2023-12-07T03:59:53;102079.25;;;-0.82;100.00
48404;BME280;34202;52.536;6.042;2023-12-07T04:04:54;102084.02;;;-0.84;100.00
48404;BME280;34202;52.536;6.042;2023-12-07T04:09:55;102078.52;;;-0.87;100.00
48404;BME280;34202;52.536;6.042;2023-12-07T04:14:55;102079.58;;;-0.89;100.00
48404;BME280;34202;52.536;6.042;2023-12-07T04:19:56;102082.21;;;-0.90;100.00
48404;BME280;34202;52.536;6.042;2023-12-07T04:24:57;102083.16;;;-0.91;100.00
48404;BME280;34202;52.536;6.042;2023-12-07T04:29:57;102088.61;;;-0.91;100.00
48404;BME280;34202;52.536;6.042;2023-12-07T04:34:58;102083.62;;;-0.92;100.00
48404;BME280;34202;52.536;6.042;2023-12-07T04:39:58;102078.61;;;-0.93;100.00
48404;BME280;34202;52.536;6.042;2023-12-07T04:44:58;102075.09;;;-0.94;100.00
48404;BME280;34202;52.536;6.042;2023-12-07T04:49:59;102072.77;;;-0.95;100.00
48404;BME280;34202;52.536;6.042;2023-12-07T04:54:59;102074.88;;;-0.97;100.00
48404;BME280;34202;52.536;6.042;2023-12-07T05:00:00;102074.58;;;-0.99;100.00
48404;BME280;34202;52.536;6.042;2023-12-07T05:05:01;102070.14;;;-1.01;100.00
48404;BME280;34202;52.536;6.042;2023-12-07T05:10:01;102073.46;;;-1.03;100.00
48404;BME280;34202;52.536;6.042;2023-12-07T05:15:03;102076.35;;;-1.05;100.00
48404;BME280;34202;52.536;6.042;2023-12-07T05:20:05;102079.89;;;-1.08;100.00
48404;BME280;34202;52.536;6.042;2023-12-07T05:25:06;102080.20;;;-1.11;100.00
48404;BME280;34202;52.536;6.042;2023-12-07T05:30:07;102074.90;;;-1.13;100.00
48404;BME280;34202;52.536;6.042;2023-12-07T05:35:08;102073.85;;;-1.16;100.00
48404;BME280;34202;52.536;6.042;2023-12-07T05:40:09;102071.86;;;-1.20;100.00
48404;BME280;34202;52.536;6.042;2023-12-07T05:45:11;102073.66;;;-1.23;100.00
48404;BME280;34202;52.536;6.042;2023-12-07T05:50:11;102071.50;;;-1.27;100.00
48404;BME280;34202;52.536;6.042;2023-12-07T05:55:11;102064.59;;;-1.30;100.00
48404;BME280;34202;52.536;6.042;2023-12-07T06:00:13;102058.34;;;-1.34;100.00
48404;BME280;34202;52.536;6.042;2023-12-07T06:05:13;102058.63;;;-1.37;100.00
48404;BME280;34202;52.536;6.042;2023-12-07T06:10:14;102064.50;;;-1.41;100.00
48404;BME280;34202;52.536;6.042;2023-12-07T06:15:14;102064.67;;;-1.45;100.00
48404;BME280;34202;52.536;6.042;2023-12-07T06:20:15;102065.63;;;-1.49;100.00
48404;BME280;34202;52.536;6.042;2023-12-07T06:25:16;102065.80;;;-1.53;100.00
48404;BME280;34202;52.536;6.042;2023-12-07T06:30:16;102069.22;;;-1.58;100.00
48404;BME280;34202;52.536;6.042;2023-12-07T06:35:18;102083.66;;;-1.61;100.00
48404;BME280;34202;52.536;6.042;2023-12-07T06:40:18;102083.21;;;-1.64;100.00
48404;BME280;34202;52.536;6.042;2023-12-07T06:45:20;102083.81;;;-1.68;100.00
48404;BME280;34202;52.536;6.042;2023-12-07T06:50:20;102079.41;;;-1.71;100.00
48404;BME280;34202;52.536;6.042;2023-12-07T06:55:21;102080.70;;;-1.75;100.00
48404;BME280;34202;52.536;6.042;2023-12-07T07:00:23;102074.27;;;-1.79;100.00
48404;BME280;34202;52.536;6.042;2023-12-07T07:05:24;102081.31;;;-1.83;100.00
48404;BME280;34202;52.536;6.042;2023-12-07T07:10:25;102082.60;;;-1.86;100.00
48404;BME280;34202;52.536;6.042;2023-12-07T07:15:25;102078.30;;;-1.88;100.00
48404;BME280;34202;52.536;6.042;2023-12-07T07:20:26;102080.47;;;-1.91;100.00
48404;BME280;34202;52.536;6.042;2023-12-07T07:25:27;102079.60;;;-1.94;100.00
48404;BME280;34202;52.536;6.042;2023-12-07T07:30:27;102091.84;;;-1.95;100.00
48404;BME280;34202;52.536;6.042;2023-12-07T07:35:27;102093.32;;;-1.93;100.00
48404;BME280;34202;52.536;6.042;2023-12-07T07:40:28;102091.95;;;-1.91;100.00
48404;BME280;34202;52.536;6.042;2023-12-07T07:45:28;102094.34;;;-1.88;100.00
48404;BME280;34202;52.536;6.042;2023-12-07T07:50:29;102096.25;;;-1.86;100.00
48404;BME280;34202;52.536;6.042;2023-12-07T07:55:30;102103.38;;;-1.84;100.00
48404;BME280;34202;52.536;6.042;2023-12-07T08:00:31;102102.44;;;-1.81;100.00
48404;BME280;34202;52.536;6.042;2023-12-07T08:05:33;102098.77;;;-1.76;100.00
48404;BME280;34202;52.536;6.042;2023-12-07T08:10:33;102102.14;;;-1.69;100.00
48404;BME280;34202;52.536;6.042;2023-12-07T08:15:34;102097.04;;;-1.64;100.00
48404;BME280;34202;52.536;6.042;2023-12-07T08:20:34;102100.13;;;-1.60;100.00
48404;BME280;34202;52.536;6.042;2023-12-07T08:25:35;102098.59;;;-1.55;100.00
48404;BME280;34202;52.536;6.042;2023-12-07T08:30:36;102099.02;;;-1.52;100.00
48404;BME280;34202;52.536;6.042;2023-12-07T08:35:36;102102.38;;;-1.48;100.00
48404;BME280;34202;52.536;6.042;2023-12-07T08:40:36;102103.24;;;-1.45;100.00
48404;BME280;34202;52.536;6.042;2023-12-07T08:45:37;102099.95;;;-1.44;100.00
48404;BME280;34202;52.536;6.042;2023-12-07T08:50:38;102103.33;;;-1.40;100.00
48404;BME280;34202;52.536;6.042;2023-12-07T08:55:38;102097.11;;;-1.34;100.00
48404;BME280;34202;52.536;6.042;2023-12-07T09:00:39;102091.04;;;-1.28;100.00
48404;BME280;34202;52.536;6.042;2023-12-07T09:05:40;102089.41;;;-1.23;100.00
48404;BME280;34202;52.536;6.042;2023-12-07T09:10:40;102096.09;;;-1.15;100.00
48404;BME280;34202;52.536;6.042;2023-12-07T09:15:41;102091.02;;;-1.10;100.00
48404;BME280;34202;52.536;6.042;2023-12-07T09:20:42;102089.95;;;-1.04;100.00
48404;BME280;34202;52.536;6.042;2023-12-07T09:25:46;102084.15;;;-0.97;100.00
48404;BME280;34202;52.536;6.042;2023-12-07T09:30:46;102080.95;;;-0.89;100.00
48404;BME280;34202;52.536;6.042;2023-12-07T09:35:46;102076.04;;;-0.81;100.00
48404;BME280;34202;52.536;6.042;2023-12-07T09:40:47;102079.52;;;-0.73;100.00
48404;BME280;34202;52.536;6.042;2023-12-07T09:45:54;102073.55;;;-0.66;100.00
48404;BME280;34202;52.536;6.042;2023-12-07T09:50:56;102071.13;;;-0.62;100.00
48404;BME280;34202;52.536;6.042;2023-12-07T09:55:56;102071.09;;;-0.57;100.00
48404;BME280;34202;52.536;6.042;2023-12-07T10:00:57;102067.85;;;-0.52;100.00
48404;BME280;34202;52.536;6.042;2023-12-07T10:05:59;102068.67;;;-0.48;100.00
48404;BME280;34202;52.536;6.042;2023-12-07T10:11:06;102067.31;;;-0.40;100.00
48404;BME280;34202;52.536;6.042;2023-12-07T10:16:16;102057.39;;;-0.35;100.00
48404;BME280;34202;52.536;6.042;2023-12-07T10:21:31;102060.41;;;-0.29;100.00
48404;BME280;34202;52.536;6.042;2023-12-07T10:26:32;102055.04;;;-0.23;100.00
48404;BME280;34202;52.536;6.042;2023-12-07T10:31:32;102048.44;;;-0.17;100.00
48404;BME280;34202;52.536;6.042;2023-12-07T10:36:33;102049.84;;;-0.11;100.00
48404;BME280;34202;52.536;6.042;2023-12-07T10:41:34;102053.25;;;-0.07;100.00
48404;BME280;34202;52.536;6.042;2023-12-07T10:46:35;102044.40;;;-0.03;100.00
48404;BME280;34202;52.536;6.042;2023-12-07T10:51:42;102041.00;;;-0.00;100.00
48404;BME280;34202;52.536;6.042;2023-12-07T10:56:45;102038.81;;;0.03;100.00
48404;BME280;34202;52.536;6.042;2023-12-07T11:01:47;102021.70;;;0.05;100.00
48404;BME280;34202;52.536;6.042;2023-12-07T11:06:50;102012.85;;;0.11;100.00
48404;BME280;34202;52.536;6.042;2023-12-07T11:11:58;102010.77;;;0.18;100.00
48404;BME280;34202;52.536;6.042;2023-12-07T11:17:00;102006.92;;;0.27;100.00
48404;BME280;34202;52.536;6.042;2023-12-07T11:22:01;102007.84;;;0.36;100.00
48404;BME280;34202;52.536;6.042;2023-12-07T11:27:02;101993.80;;;0.41;100.00
48404;BME280;34202;52.536;6.042;2023-12-07T11:32:02;101982.27;;;0.43;100.00
48404;BME280;34202;52.536;6.042;2023-12-07T11:37:08;101978.69;;;0.46;100.00
48404;BME280;34202;52.536;6.042;2023-12-07T11:42:15;101977.80;;;0.48;100.00
48404;BME280;34202;52.536;6.042;2023-12-07T11:47:17;101966.56;;;0.49;100.00
48404;BME280;34202;52.536;6.042;2023-12-07T11:52:19;101967.25;;;0.51;100.00
48404;BME280;34202;52.536;6.042;2023-12-07T11:57:20;101962.44;;;0.56;100.00
48404;BME280;34202;52.536;6.042;2023-12-07T12:02:21;101958.02;;;0.57;100.00
48404;BME280;34202;52.536;6.042;2023-12-07T12:07:21;101949.91;;;0.56;100.00
48404;BME280;34202;52.536;6.042;2023-12-07T12:12:25;101942.97;;;0.57;100.00
48404;BME280;34202;52.536;6.042;2023-12-07T12:17:25;101940.64;;;0.59;100.00
48404;BME280;34202;52.536;6.042;2023-12-07T12:22:26;101936.66;;;0.61;100.00
48404;BME280;34202;52.536;6.042;2023-12-07T12:27:26;101926.33;;;0.63;100.00
48404;BME280;34202;52.536;6.042;2023-12-07T12:32:27;101917.46;;;0.66;100.00
48404;BME280;34202;52.536;6.042;2023-12-07T12:37:30;101909.10;;;0.69;100.00
48404;BME280;34202;52.536;6.042;2023-12-07T12:42:33;101903.09;;;0.72;100.00
48404;BME280;34202;52.536;6.042;2023-12-07T12:47:34;101894.78;;;0.73;100.00
48404;BME280;34202;52.536;6.042;2023-12-07T12:52:35;101896.65;;;0.75;100.00
48404;BME280;34202;52.536;6.042;2023-12-07T12:57:37;101893.14;;;0.76;100.00
48404;BME280;34202;52.536;6.042;2023-12-07T13:02:38;101892.14;;;0.80;100.00
48404;BME280;34202;52.536;6.042;2023-12-07T13:07:38;101876.03;;;0.83;100.00
48404;BME280;34202;52.536;6.042;2023-12-07T13:12:38;101857.41;;;0.84;100.00
48404;BME280;34202;52.536;6.042;2023-12-07T13:17:39;101852.60;;;0.86;100.00
48404;BME280;34202;52.536;6.042;2023-12-07T13:22:41;101836.80;;;0.88;100.00
48404;BME280;34202;52.536;6.042;2023-12-07T13:27:43;101830.64;;;0.91;100.00
48404;BME280;34202;52.536;6.042;2023-12-07T13:32:43;101848.82;;;0.94;100.00
48404;BME280;34202;52.536;6.042;2023-12-07T13:37:44;101847.89;;;0.96;100.00
48404;BME280;34202;52.536;6.042;2023-12-07T13:42:44;101836.77;;;0.96;100.00
48404;BME280;34202;52.536;6.042;2023-12-07T13:47:45;101826.48;;;0.99;100.00
48404;BME280;34202;52.536;6.042;2023-12-07T13:52:45;101814.36;;;1.00;100.00
48404;BME280;34202;52.536;6.042;2023-12-07T13:57:46;101809.61;;;1.01;100.00
48404;BME280;34202;52.536;6.042;2023-12-07T14:02:46;101798.23;;;1.03;100.00
48404;BME280;34202;52.536;6.042;2023-12-07T14:07:47;101794.16;;;1.03;100.00
48404;BME280;34202;52.536;6.042;2023-12-07T14:12:47;101782.45;;;1.05;100.00
48404;BME280;34202;52.536;6.042;2023-12-07T14:17:48;101775.54;;;1.04;100.00
48404;BME280;34202;52.536;6.042;2023-12-07T14:22:48;101773.15;;;1.02;100.00
48404;BME280;34202;52.536;6.042;2023-12-07T14:27:49;101765.45;;;0.99;100.00
48404;BME280;34202;52.536;6.042;2023-12-07T14:32:49;101760.15;;;0.96;100.00
48404;BME280;34202;52.536;6.042;2023-12-07T14:37:52;101757.02;;;0.93;100.00
48404;BME280;34202;52.536;6.042;2023-12-07T14:42:52;101751.63;;;0.91;100.00
48404;BME280;34202;52.536;6.042;2023-12-07T14:47:52;101743.81;;;0.90;100.00
48404;BME280;34202;52.536;6.042;2023-12-07T14:52:53;101739.64;;;0.89;100.00
48404;BME280;34202;52.536;6.042;2023-12-07T14:57:53;101744.79;;;0.89;100.00
48404;BME280;34202;52.536;6.042;2023-12-07T15:02:54;101738.30;;;0.90;100.00
48404;BME280;34202;52.536;6.042;2023-12-07T15:07:54;101732.20;;;0.91;100.00
48404;BME280;34202;52.536;6.042;2023-12-07T15:12:55;101737.13;;;0.93;100.00
48404;BME280;34202;52.536;6.042;2023-12-07T15:17:56;101728.12;;;0.94;100.00
48404;BME280;34202;52.536;6.042;2023-12-07T15:22:56;101721.27;;;0.94;100.00
48404;BME280;34202;52.536;6.042;2023-12-07T15:27:57;101706.77;;;0.95;100.00
48404;BME280;34202;52.536;6.042;2023-12-07T15:32:58;101697.92;;;0.96;100.00
48404;BME280;34202;52.536;6.042;2023-12-07T15:37:58;101699.36;;;0.98;100.00
48404;BME280;34202;52.536;6.042;2023-12-07T15:42:58;101700.88;;;1.00;100.00
48404;BME280;34202;52.536;6.042;2023-12-07T15:47:59;101697.38;;;1.02;100.00
48404;BME280;34202;52.536;6.042;2023-12-07T15:52:59;101690.36;;;1.05;100.00
48404;BME280;34202;52.536;6.042;2023-12-07T15:57:59;101680.54;;;1.07;100.00
48404;BME280;34202;52.536;6.042;2023-12-07T16:03:01;101675.70;;;1.09;100.00
48404;BME280;34202;52.536;6.042;2023-12-07T16:08:01;101665.27;;;1.13;100.00
48404;BME280;34202;52.536;6.042;2023-12-07T16:13:03;101654.33;;;1.16;100.00
48404;BME280;34202;52.536;6.042;2023-12-07T16:18:03;101646.28;;;1.20;100.00
48404;BME280;34202;52.536;6.042;2023-12-07T16:23:03;101637.45;;;1.24;100.00
48404;BME280;34202;52.536;6.042;2023-12-07T16:28:04;101617.75;;;1.27;100.00
48404;BME280;34202;52.536;6.042;2023-12-07T16:33:04;101606.30;;;1.31;100.00
48404;BME280;34202;52.536;6.042;2023-12-07T16:38:04;101603.33;;;1.36;100.00
48404;BME280;34202;52.536;6.042;2023-12-07T16:43:06;101598.63;;;1.41;100.00
48404;BME280;34202;52.536;6.042;2023-12-07T16:48:06;101591.14;;;1.46;100.00
48404;BME280;34202;52.536;6.042;2023-12-07T16:53:06;101574.48;;;1.51;100.00
48404;BME280;34202;52.536;6.042;2023-12-07T16:58:07;101568.73;;;1.56;100.00
48404;BME280;34202;52.536;6.042;2023-12-07T17:03:07;101561.30;;;1.61;100.00
48404;BME280;34202;52.536;6.042;2023-12-07T17:08:08;101566.81;;;1.65;100.00
48404;BME280;34202;52.536;6.042;2023-12-07T17:13:08;101565.39;;;1.67;100.00
48404;BME280;34202;52.536;6.042;2023-12-07T17:18:10;101568.17;;;1.68;100.00
48404;BME280;34202;52.536;6.042;2023-12-07T17:23:11;101568.86;;;1.68;100.00
48404;BME280;34202;52.536;6.042;2023-12-07T17:28:12;101558.11;;;1.66;100.00
48404;BME280;34202;52.536;6.042;2023-12-07T17:33:12;101553.02;;;1.63;100.00
48404;BME280;34202;52.536;6.042;2023-12-07T17:38:12;101551.01;;;1.61;100.00
48404;BME280;34202;52.536;6.042;2023-12-07T17:43:13;101551.63;;;1.57;100.00
48404;BME280;34202;52.536;6.042;2023-12-07T17:48:13;101548.52;;;1.53;100.00
48404;BME280;34202;52.536;6.042;2023-12-07T17:53:13;101544.23;;;1.50;100.00
48404;BME280;34202;52.536;6.042;2023-12-07T17:58:14;101523.08;;;1.46;100.00
48404;BME280;34202;52.536;6.042;2023-12-07T18:03:14;101505.91;;;1.43;100.00
48404;BME280;34202;52.536;6.042;2023-12-07T18:08:15;101484.96;;;1.39;100.00
48404;BME280;34202;52.536;6.042;2023-12-07T18:13:15;101485.00;;;1.36;100.00
48404;BME280;34202;52.536;6.042;2023-12-07T18:18:16;101474.05;;;1.33;100.00
48404;BME280;34202;52.536;6.042;2023-12-07T18:23:16;101469.95;;;1.31;100.00
48404;BME280;34202;52.536;6.042;2023-12-07T18:28:17;101466.42;;;1.29;100.00
48404;BME280;34202;52.536;6.042;2023-12-07T18:33:18;101469.05;;;1.27;100.00
48404;BME280;34202;52.536;6.042;2023-12-07T18:38:18;101472.76;;;1.26;100.00
48404;BME280;34202;52.536;6.042;2023-12-07T18:43:19;101462.05;;;1.24;100.00
48404;BME280;34202;52.536;6.042;2023-12-07T18:48:19;101457.86;;;1.23;100.00
48404;BME280;34202;52.536;6.042;2023-12-07T18:53:20;101462.98;;;1.23;100.00
48404;BME280;34202;52.536;6.042;2023-12-07T18:58:21;101450.94;;;1.22;100.00
48404;BME280;34202;52.536;6.042;2023-12-07T19:03:23;101451.22;;;1.21;100.00
48404;BME280;34202;52.536;6.042;2023-12-07T19:08:24;101450.55;;;1.21;100.00
48404;BME280;34202;52.536;6.042;2023-12-07T19:13:24;101445.55;;;1.21;100.00
48404;BME280;34202;52.536;6.042;2023-12-07T19:18:24;101435.67;;;1.19;100.00
48404;BME280;34202;52.536;6.042;2023-12-07T19:23:25;101424.27;;;1.17;100.00
48404;BME280;34202;52.536;6.042;2023-12-07T19:28:25;101412.27;;;1.17;100.00
48404;BME280;34202;52.536;6.042;2023-12-07T19:33:25;101400.92;;;1.16;100.00
48404;BME280;34202;52.536;6.042;2023-12-07T19:38:26;101389.48;;;1.17;100.00
48404;BME280;34202;52.536;6.042;2023-12-07T19:43:26;101383.88;;;1.18;100.00
48404;BME280;34202;52.536;6.042;2023-12-07T19:48:26;101375.53;;;1.19;100.00
48404;BME280;34202;52.536;6.042;2023-12-07T19:53:27;101362.57;;;1.21;100.00
48404;BME280;34202;52.536;6.042;2023-12-07T19:58:27;101359.88;;;1.22;100.00
48404;BME280;34202;52.536;6.042;2023-12-07T20:03:27;101351.91;;;1.23;100.00
48404;BME280;34202;52.536;6.042;2023-12-07T20:08:28;101336.47;;;1.23;100.00
48404;BME280;34202;52.536;6.042;2023-12-07T20:13:28;101333.04;;;1.23;100.00
48404;BME280;34202;52.536;6.042;2023-12-07T20:18:29;101308.50;;;1.23;100.00
48404;BME280;34202;52.536;6.042;2023-12-07T20:23:30;101297.33;;;1.22;100.00
48404;BME280;34202;52.536;6.042;2023-12-07T20:28:31;101294.58;;;1.22;100.00
48404;BME280;34202;52.536;6.042;2023-12-07T20:33:31;101298.73;;;1.23;100.00
48404;BME280;34202;52.536;6.042;2023-12-07T20:38:31;101300.31;;;1.24;100.00
48404;BME280;34202;52.536;6.042;2023-12-07T20:43:32;101287.21;;;1.25;100.00
48404;BME280;34202;52.536;6.042;2023-12-07T20:48:32;101273.92;;;1.27;100.00
48404;BME280;34202;52.536;6.042;2023-12-07T20:53:33;101265.14;;;1.30;100.00
48404;BME280;34202;52.536;6.042;2023-12-07T20:58:33;101265.58;;;1.32;100.00
48404;BME280;34202;52.536;6.042;2023-12-07T21:03:33;101258.17;;;1.35;100.00
48404;BME280;34202;52.536;6.042;2023-12-07T21:08:34;101254.02;;;1.37;100.00
48404;BME280;34202;52.536;6.042;2023-12-07T21:13:35;101245.48;;;1.38;100.00
48404;BME280;34202;52.536;6.042;2023-12-07T21:18:37;101239.39;;;1.40;100.00
48404;BME280;34202;52.536;6.042;2023-12-07T21:23:37;101223.02;;;1.42;100.00
48404;BME280;34202;52.536;6.042;2023-12-07T21:28:37;101218.45;;;1.43;100.00
48404;BME280;34202;52.536;6.042;2023-12-07T21:33:38;101205.48;;;1.44;100.00
48404;BME280;34202;52.536;6.042;2023-12-07T21:38:42;101201.77;;;1.45;100.00
48404;BME280;34202;52.536;6.042;2023-12-07T21:43:43;101192.58;;;1.47;100.00
48404;BME280;34202;52.536;6.042;2023-12-07T21:48:43;101181.17;;;1.49;100.00
48404;BME280;34202;52.536;6.042;2023-12-07T21:53:44;101169.27;;;1.50;100.00
48404;BME280;34202;52.536;6.042;2023-12-07T21:58:44;101162.29;;;1.52;100.00
48404;BME280;34202;52.536;6.042;2023-12-07T22:03:45;101166.48;;;1.53;100.00
48404;BME280;34202;52.536;6.042;2023-12-07T22:08:45;101166.00;;;1.54;100.00
48404;BME280;34202;52.536;6.042;2023-12-07T22:13:45;101145.73;;;1.53;100.00
48404;BME280;34202;52.536;6.042;2023-12-07T22:18:46;101132.55;;;1.54;100.00
48404;BME280;34202;52.536;6.042;2023-12-07T22:23:46;101119.50;;;1.54;100.00
48404;BME280;34202;52.536;6.042;2023-12-07T22:28:47;101114.02;;;1.54;100.00
48404;BME280;34202;52.536;6.042;2023-12-07T22:33:47;101111.99;;;1.54;100.00
48404;BME280;34202;52.536;6.042;2023-12-07T22:38:48;101114.06;;;1.55;100.00
48404;BME280;34202;52.536;6.042;2023-12-07T22:43:48;101100.55;;;1.56;100.00
48404;BME280;34202;52.536;6.042;2023-12-07T22:48:49;101097.30;;;1.56;100.00
48404;BME280;34202;52.536;6.042;2023-12-07T22:53:49;101084.95;;;1.56;100.00
48404;BME280;34202;52.536;6.042;2023-12-07T22:58:49;101069.98;;;1.55;100.00
48404;BME280;34202;52.536;6.042;2023-12-07T23:03:50;101055.02;;;1.54;100.00
48404;BME280;34202;52.536;6.042;2023-12-07T23:08:50;101043.82;;;1.53;100.00
48404;BME280;34202;52.536;6.042;2023-12-07T23:13:51;101039.67;;;1.52;100.00
48404;BME280;34202;52.536;6.042;2023-12-07T23:18:51;101036.19;;;1.51;100.00
48404;BME280;34202;52.536;6.042;2023-12-07T23:23:52;101035.11;;;1.50;100.00
48404;BME280;34202;52.536;6.042;2023-12-07T23:28:52;101045.90;;;1.50;100.00
48404;BME280;34202;52.536;6.042;2023-12-07T23:33:52;101048.27;;;1.49;100.00
48404;BME280;34202;52.536;6.042;2023-12-07T23:38:53;101050.48;;;1.49;100.00
48404;BME280;34202;52.536;6.042;2023-12-07T23:43:53;101048.59;;;1.49;100.00
48404;BME280;34202;52.536;6.042;2023-12-07T23:48:53;101042.02;;;1.48;100.00
48404;BME280;34202;52.536;6.042;2023-12-07T23:53:54;101022.05;;;1.47;100.00
48404;BME280;34202;52.536;6.042;2023-12-07T23:58:54;100996.63;;;1.45;100.00
